createdAt,value
2023-05-13T00:00:21.952Z,10.92
2023-05-13T00:05:23.712Z,10.71
2023-05-13T00:10:25.226Z,10.58
2023-05-13T00:15:27.427Z,10.55
2023-05-13T00:20:28.985Z,10.58
2023-05-13T00:25:30.626Z,10.48
2023-05-13T00:30:32.454Z,10.35
2023-05-13T00:35:33.981Z,10.27
2023-05-13T00:40:42.373Z,10.20
2023-05-13T00:45:43.896Z,10.17
2023-05-13T00:50:45.626Z,10.08
2023-05-13T00:55:47.305Z,10.04
2023-05-13T01:01:27.124Z,9.98
2023-05-13T01:06:56.915Z,9.90
2023-05-13T01:12:07.563Z,9.84
2023-05-13T01:17:18.126Z,9.73
2023-05-13T01:22:20.046Z,9.64
2023-05-13T01:27:21.679Z,9.57
2023-05-13T01:32:24.100Z,9.58
2023-05-13T01:37:26.123Z,9.49
2023-05-13T01:42:30.044Z,9.41
2023-05-13T01:47:32.260Z,9.36
2023-05-13T01:52:34.141Z,9.36
2023-05-13T01:57:36.175Z,9.45
2023-05-13T02:02:37.869Z,9.56
2023-05-13T02:07:39.481Z,9.47
2023-05-13T02:12:41.293Z,9.51
2023-05-13T02:17:42.983Z,9.44
2023-05-13T02:22:44.545Z,9.33
2023-05-13T02:27:46.061Z,9.49
2023-05-13T02:32:47.776Z,9.58
2023-05-13T02:37:49.476Z,9.55
2023-05-13T02:42:51.457Z,9.53
2023-05-13T02:48:00.063Z,9.37
2023-05-13T02:53:02.692Z,9.22
2023-05-13T02:58:06.305Z,9.08
2023-05-13T03:03:08.570Z,9.02
2023-05-13T03:08:12.861Z,9.00
2023-05-13T03:13:14.456Z,8.89
2023-05-13T03:18:17.200Z,8.76
2023-05-13T03:23:19.008Z,8.80
2023-05-13T03:28:22.770Z,8.77
2023-05-13T03:33:24.398Z,8.69
2023-05-13T03:38:25.921Z,8.56
2023-05-13T03:43:28.319Z,8.54
2023-05-13T03:48:34.512Z,8.51
2023-05-13T03:53:37.453Z,8.55
2023-05-13T03:58:39.228Z,8.60
2023-05-13T04:03:42.845Z,8.52
2023-05-13T04:08:44.414Z,8.53
2023-05-13T04:13:46.104Z,8.65
2023-05-13T04:18:47.730Z,8.78
2023-05-13T04:23:49.258Z,8.95
2023-05-13T04:28:51.172Z,9.18
2023-05-13T04:33:53.183Z,9.37
2023-05-13T04:38:55.496Z,9.53
2023-05-13T04:43:57.907Z,9.64
2023-05-13T04:48:59.578Z,9.76
2023-05-13T04:54:01.701Z,9.90
2023-05-13T04:59:03.952Z,10.01
2023-05-13T05:04:06.020Z,10.16
2023-05-13T05:09:09.677Z,10.27
2023-05-13T05:14:11.322Z,10.43
2023-05-13T05:19:13.028Z,10.65
2023-05-13T05:24:14.976Z,10.87
2023-05-13T05:29:16.710Z,10.94
2023-05-13T05:34:19.340Z,11.04
2023-05-13T05:39:22.131Z,11.10
2023-05-13T05:44:23.871Z,11.25
2023-05-13T05:49:25.676Z,11.52
2023-05-13T05:54:28.042Z,11.75
2023-05-13T05:59:29.828Z,11.79
2023-05-13T06:04:31.603Z,12.00
2023-05-13T06:09:35.764Z,12.14
2023-05-13T06:14:38.104Z,12.26
2023-05-13T06:19:39.626Z,12.55
2023-05-13T06:24:42.984Z,12.77
2023-05-13T06:29:44.621Z,12.82
2023-05-13T06:34:47.441Z,13.14
2023-05-13T06:39:49.161Z,13.17
2023-05-13T06:44:52.026Z,13.12
2023-05-13T06:49:58.412Z,13.26
2023-05-13T06:54:59.995Z,13.48
2023-05-13T07:00:02.355Z,13.69
2023-05-13T07:05:04.137Z,13.87
2023-05-13T07:10:06.031Z,13.92
2023-05-13T07:15:08.482Z,14.04
2023-05-13T07:20:10.352Z,13.87
2023-05-13T07:25:12.505Z,13.91
2023-05-13T07:30:14.393Z,14.00
2023-05-13T07:35:17.162Z,14.18
2023-05-13T07:40:20.177Z,13.98
2023-05-13T07:45:22.375Z,13.89
2023-05-13T07:50:24.290Z,13.96
2023-05-13T07:55:26.015Z,14.27
2023-05-13T08:00:27.540Z,14.79
2023-05-13T08:05:29.069Z,15.01
2023-05-13T08:10:30.768Z,15.29
2023-05-13T08:15:32.368Z,15.46
2023-05-13T08:20:33.965Z,15.37
2023-05-13T08:25:35.521Z,15.25
2023-05-13T08:30:37.031Z,15.27
2023-05-13T08:35:38.691Z,15.34
2023-05-13T08:40:42.379Z,15.20
2023-05-13T08:45:47.991Z,15.30
2023-05-13T08:50:50.128Z,15.30
2023-05-13T08:55:52.326Z,15.47
2023-05-13T09:00:54.446Z,16.00
2023-05-13T09:05:56.426Z,16.00
2023-05-13T09:10:58.122Z,16.21
2023-05-13T09:15:59.720Z,16.82
2023-05-13T09:21:30.419Z,17.06
2023-05-13T09:26:31.975Z,17.33
2023-05-13T09:31:33.847Z,17.88
2023-05-13T09:36:35.429Z,18.07
2023-05-13T09:41:37.059Z,18.10
2023-05-13T09:46:38.917Z,18.14
2023-05-13T09:51:40.451Z,18.08
2023-05-13T09:56:42.217Z,18.15
2023-05-13T10:01:45.485Z,17.83
2023-05-13T10:06:48.930Z,18.09
2023-05-13T10:11:50.731Z,18.56
2023-05-13T10:16:52.907Z,18.71
2023-05-13T10:21:57.388Z,18.72
2023-05-13T10:27:01.599Z,19.03
2023-05-13T10:32:04.667Z,18.71
2023-05-13T10:37:16.615Z,18.74
2023-05-13T10:42:43.430Z,18.69
2023-05-13T10:47:50.122Z,18.26
2023-05-13T10:52:56.854Z,18.37
2023-05-13T10:58:08.503Z,18.45
2023-05-13T11:03:29.358Z,18.88
2023-05-13T11:08:41.498Z,18.94
2023-05-13T11:13:43.150Z,18.69
2023-05-13T11:18:44.853Z,18.53
2023-05-13T11:24:06.592Z,18.72
2023-05-13T11:29:08.083Z,19.04
2023-05-13T11:34:14.777Z,18.91
2023-05-13T11:39:18.739Z,18.52
2023-05-13T11:44:22.784Z,18.60
2023-05-13T11:49:45.064Z,18.98
2023-05-13T11:54:49.456Z,19.09
2023-05-13T11:59:55.418Z,18.58
2023-05-13T12:05:07.459Z,19.08
2023-05-13T12:10:09.442Z,19.39
2023-05-13T12:15:15.654Z,19.75
2023-05-13T12:20:18.976Z,19.65
2023-05-13T12:25:36.774Z,19.19
2023-05-13T12:30:54.480Z,19.40
2023-05-13T12:36:20.191Z,19.79
2023-05-13T12:41:22.891Z,19.76
2023-05-13T12:46:24.773Z,19.82
2023-05-13T12:51:26.611Z,19.85
2023-05-13T12:56:28.222Z,19.73
2023-05-13T13:01:29.857Z,19.46
2023-05-13T13:06:32.374Z,19.18
2023-05-13T13:11:33.939Z,19.72
2023-05-13T13:16:35.487Z,19.60
2023-05-13T13:21:37.156Z,19.47
2023-05-13T13:26:38.730Z,19.45
2023-05-13T13:31:40.308Z,19.84
2023-05-13T13:36:41.964Z,19.46
2023-05-13T13:41:43.501Z,18.82
2023-05-13T13:46:45.202Z,18.65
2023-05-13T13:51:46.725Z,18.69
2023-05-13T13:56:48.337Z,18.73
2023-05-13T14:01:50.119Z,19.08
2023-05-13T14:06:52.230Z,19.04
2023-05-13T14:11:53.800Z,19.13
2023-05-13T14:16:55.353Z,19.29
2023-05-13T14:21:56.903Z,19.49
2023-05-13T14:26:59.131Z,18.78
2023-05-13T14:32:02.829Z,18.58
2023-05-13T14:37:04.578Z,18.58
2023-05-13T14:42:06.414Z,18.33
2023-05-13T14:47:08.357Z,18.01
2023-05-13T14:52:10.102Z,17.96
2023-05-13T14:57:11.801Z,17.96
2023-05-13T15:02:13.955Z,18.36
2023-05-13T15:07:15.650Z,18.14
2023-05-13T15:12:17.197Z,17.81
2023-05-13T15:17:18.897Z,17.63
2023-05-13T15:22:20.478Z,17.59
2023-05-13T15:27:22.115Z,17.60
2023-05-13T15:32:23.644Z,17.59
2023-05-13T15:37:25.176Z,17.83
2023-05-13T15:42:27.599Z,18.40
2023-05-13T15:47:29.225Z,18.73
2023-05-13T15:52:30.801Z,18.89
2023-05-13T15:57:32.465Z,18.53
2023-05-13T16:02:39.785Z,18.12
2023-05-13T16:07:42.441Z,18.24
2023-05-13T16:12:44.077Z,18.41
2023-05-13T16:17:45.649Z,18.36
2023-05-13T16:22:47.244Z,18.36
2023-05-13T16:27:49.178Z,18.30
2023-05-13T16:32:53.444Z,18.30
2023-05-13T16:37:55.061Z,17.70
2023-05-13T16:42:59.295Z,17.29
2023-05-13T16:48:02.665Z,17.14
2023-05-13T16:53:04.323Z,16.97
2023-05-13T16:58:05.889Z,16.55
2023-05-13T17:03:07.848Z,16.57
2023-05-13T17:08:09.882Z,16.91
2023-05-13T17:13:11.679Z,16.91
2023-05-13T17:18:15.880Z,16.79
2023-05-13T17:23:17.463Z,16.78
2023-05-13T17:28:18.978Z,16.81
2023-05-13T17:33:20.545Z,16.77
2023-05-13T17:38:22.177Z,16.83
2023-05-13T17:43:23.680Z,16.74
2023-05-13T17:48:26.678Z,16.70
2023-05-13T17:53:28.507Z,16.66
2023-05-13T17:58:30.031Z,16.72
2023-05-13T18:03:31.576Z,16.57
2023-05-13T18:08:33.136Z,16.22
2023-05-13T18:13:35.968Z,15.91
2023-05-13T18:18:37.680Z,15.64
2023-05-13T18:23:39.350Z,15.43
2023-05-13T18:28:41.441Z,15.10
2023-05-13T18:33:43.030Z,15.05
2023-05-13T18:38:47.779Z,14.95
2023-05-13T18:43:50.400Z,14.74
2023-05-13T18:48:51.916Z,14.38
2023-05-13T18:53:53.411Z,14.09
2023-05-13T18:58:54.923Z,13.74
2023-05-13T19:03:56.856Z,13.42
2023-05-13T19:08:58.446Z,13.32
2023-05-13T19:13:59.999Z,13.08
2023-05-13T19:19:01.650Z,12.89
2023-05-13T19:24:03.456Z,12.72
2023-05-13T19:29:05.059Z,12.56
2023-05-13T19:34:07.684Z,12.36
2023-05-13T19:39:10.301Z,12.20
2023-05-13T19:44:11.815Z,12.08
2023-05-13T19:49:13.394Z,11.92
2023-05-13T19:54:14.914Z,11.76
2023-05-13T19:59:16.468Z,11.66
2023-05-13T20:04:18.013Z,11.66
2023-05-13T20:09:19.518Z,11.71
2023-05-13T20:14:27.810Z,11.64
2023-05-13T20:19:29.423Z,11.67
2023-05-13T20:24:31.051Z,11.65
2023-05-13T20:29:42.173Z,11.48
2023-05-13T20:34:44.092Z,11.25
2023-05-13T20:39:47.909Z,11.14
2023-05-13T20:44:50.628Z,11.23
2023-05-13T20:49:52.141Z,11.37
2023-05-13T20:54:53.676Z,11.42
2023-05-13T20:59:55.497Z,11.38
2023-05-13T21:04:57.170Z,11.22
2023-05-13T21:09:58.704Z,11.25
2023-05-13T21:15:00.215Z,11.28
2023-05-13T21:20:01.831Z,11.27
2023-05-13T21:25:03.543Z,11.26
2023-05-13T21:30:06.060Z,11.25
2023-05-13T21:35:08.057Z,11.23
2023-05-13T21:40:09.964Z,11.29
2023-05-13T21:45:13.025Z,11.29
2023-05-13T21:50:17.034Z,11.18
2023-05-13T21:55:18.709Z,11.17
2023-05-13T22:00:21.737Z,11.26
2023-05-13T22:05:23.903Z,11.27
2023-05-13T22:10:25.753Z,11.25
2023-05-13T22:15:29.845Z,11.22
2023-05-13T22:20:31.450Z,11.17
2023-05-13T22:25:33.269Z,10.99
2023-05-13T22:30:34.967Z,11.01
2023-05-13T22:35:36.690Z,11.00
2023-05-13T22:40:38.314Z,10.83
2023-05-13T22:45:39.956Z,10.62
2023-05-13T22:50:41.623Z,10.32
2023-05-13T22:55:43.152Z,10.18
2023-05-13T23:00:44.680Z,10.03
2023-05-13T23:05:46.229Z,9.95
2023-05-13T23:10:47.810Z,9.73
2023-05-13T23:15:49.522Z,9.64
2023-05-13T23:20:58.188Z,9.56
2023-05-13T23:25:59.744Z,9.61
2023-05-13T23:31:01.333Z,9.69
2023-05-13T23:36:02.864Z,9.76
2023-05-13T23:41:04.401Z,9.72
2023-05-13T23:46:06.011Z,9.66
2023-05-13T23:51:07.633Z,9.56
2023-05-13T23:56:09.179Z,9.51
